Time;durP1;ratioP1;P1;durP2;ratioP2;P2;SDS_P1;SDS_P2;PMS_P1;PMS_P2;Temp;Humidity;BMP_temperature;BMP_pressure;BME280_temperature;BME280_humidity;BME280_pressure;Samples;Min_cycle;Max_cycle;Signal;HPM_P1;HPM_P2
2022/06/14 00:00:55;;;;;;;27.48;19.95;;;;;;;17.18;77.42;99307.03;5034420;28;20049;-78
2022/06/14 00:03:43;;;;;;;30.83;23.05;;;;;;;17.16;77.47;99316.78;5034428;28;20054;-78
2022/06/14 00:06:23;;;;;;;51.30;25.40;;;;;;;17.14;77.85;99314.22;5034145;28;20497;-78
2022/06/14 00:08:51;;;;;;;31.73;24.85;;;;;;;17.22;78.41;99323.66;5034074;28;20556;-77
2022/06/14 00:11:22;;;;;;;36.05;28.02;;;;;;;17.14;78.40;99286.94;5034207;28;20433;-78
2022/06/14 00:13:51;;;;;;;139.20;31.60;;;;;;;17.26;78.79;99317.38;5034556;28;20093;-78
2022/06/14 00:16:19;;;;;;;187.40;33.65;;;;;;;17.14;79.12;99319.50;5034161;28;20114;-77
2022/06/14 00:18:47;;;;;;;160.60;33.30;;;;;;;16.98;79.61;99311.19;5034162;28;20057;-77
2022/06/14 00:21:15;;;;;;;116.07;31.05;;;;;;;16.87;79.41;99302.75;5033889;28;20058;-77
2022/06/14 00:23:42;;;;;;;526.28;36.90;;;;;;;16.83;80.45;99335.41;5033831;28;20057;-77
2022/06/14 00:26:11;;;;;;;231.90;33.58;;;;;;;16.83;80.36;99345.09;5033990;28;20049;-79
2022/06/14 00:28:40;;;;;;;355.73;34.17;;;;;;;16.72;80.53;99333.06;5034051;28;20060;-79
2022/06/14 00:31:12;;;;;;;124.80;30.00;;;;;;;16.70;80.39;99337.53;5033558;28;20068;-79
2022/06/14 00:33:39;;;;;;;204.50;29.23;;;;;;;16.70;80.44;99341.94;5033658;28;20137;-78
2022/06/14 00:36:10;;;;;;;47.90;28.30;;;;;;;16.69;80.47;99335.81;5033873;28;20067;-79
2022/06/14 00:38:37;;;;;;;49.13;29.10;;;;;;;16.81;80.14;99339.00;5017004;28;20147;-78
2022/06/14 00:41:06;;;;;;;39.60;26.95;;;;;;;16.93;79.89;99325.44;5032425;28;20052;-77
2022/06/14 00:43:33;;;;;;;43.03;29.42;;;;;;;17.09;79.52;99325.81;5034144;28;20429;-78
2022/06/14 00:46:12;;;;;;;38.70;27.23;;;;;;;17.14;79.04;99327.41;5034295;28;20057;-77
2022/06/14 00:48:41;;;;;;;38.10;26.02;;;;;;;17.28;78.63;99332.22;5033726;28;20050;-77
2022/06/14 00:51:26;;;;;;;33.50;23.88;;;;;;;17.33;78.30;99337.34;5032420;28;20057;-78
2022/06/14 00:54:01;;;;;;;33.95;23.92;;;;;;;17.35;78.19;99344.31;5033919;28;20049;-78
2022/06/14 00:56:38;;;;;;;32.55;23.42;;;;;;;17.43;78.39;99335.28;5033824;28;20049;-78
2022/06/14 00:59:17;;;;;;;30.65;22.23;;;;;;;17.48;78.37;99344.78;5034187;28;20063;-78
2022/06/14 01:01:47;;;;;;;34.67;22.70;;;;;;;17.42;78.09;99307.16;5034299;28;20049;-79
2022/06/14 01:04:19;;;;;;;;;;;;;;;17.46;77.95;99338.69;5040934;28;20049;-78
2022/06/14 01:06:52;;;;;;;33.15;23.98;;;;;;;17.65;77.51;99338.94;5057591;28;19925;-77
2022/06/14 01:09:38;;;;;;;31.40;24.48;;;;;;;17.74;76.95;99335.97;5055405;28;20057;-79
2022/06/14 01:12:10;;;;;;;31.05;22.55;;;;;;;17.85;76.70;99350.63;5051711;28;20065;-77
2022/06/14 01:14:41;;;;;;;29.27;22.73;;;;;;;17.88;76.09;99324.13;5033734;28;20475;-78
2022/06/14 01:17:10;;;;;;;30.20;22.67;;;;;;;18.06;75.54;99335.81;5033917;28;20053;-78
2022/06/14 01:19:38;;;;;;;31.23;23.10;;;;;;;18.05;75.09;99326.13;5033013;28;20099;-78
2022/06/14 01:22:06;;;;;;;36.55;24.48;;;;;;;18.11;74.68;99332.09;5033334;28;20041;-79
2022/06/14 01:24:36;;;;;;;32.30;22.40;;;;;;;18.13;74.57;99339.94;5032894;28;20053;-78
2022/06/14 01:27:05;;;;;;;29.20;23.13;;;;;;;18.14;74.43;99337.25;5033226;28;20061;-78
2022/06/14 01:29:33;;;;;;;31.83;21.90;;;;;;;17.95;74.21;99325.63;5033209;28;20060;-79
2022/06/14 01:32:04;;;;;;;27.38;21.52;;;;;;;18.10;74.18;99326.84;5032956;28;20505;-79
2022/06/14 01:34:35;;;;;;;29.95;21.98;;;;;;;18.20;73.72;99323.81;5032809;28;20136;-78
2022/06/14 01:37:04;;;;;;;32.90;22.38;;;;;;;18.21;73.68;99322.88;5033544;28;20080;-78
2022/06/14 01:39:31;;;;;;;32.15;22.23;;;;;;;18.26;73.79;99332.44;5032563;28;20053;-78
2022/06/14 01:41:58;;;;;;;31.42;21.50;;;;;;;18.32;73.66;99327.78;5032858;28;20053;-79
2022/06/14 01:44:40;;;;;;;56.10;23.48;;;;;;;18.32;73.38;99325.13;5031092;28;20143;-79
2022/06/14 01:47:19;;;;;;;36.33;23.30;;;;;;;18.30;73.54;99328.75;5032736;28;20057;-78
2022/06/14 01:52:59;;;;;;;30.52;21.65;;;;;;;18.29;73.94;99330.56;5032608;28;20049;-79
2022/06/14 01:55:26;;;;;;;;;;;;;;;18.18;74.12;99333.59;5033389;28;20075;-78
2022/06/14 01:58:09;;;;;;;31.55;21.90;;;;;;;18.41;73.40;99345.97;5032983;28;19979;-78
2022/06/14 02:00:46;;;;;;;38.30;22.38;;;;;;;18.44;73.30;99345.00;5032525;28;20140;-79
2022/06/14 02:06:25;;;;;;;32.72;22.10;;;;;;;18.59;72.47;99325.03;5032275;28;20143;-78
2022/06/14 02:09:05;;;;;;;33.35;22.23;;;;;;;18.61;72.45;99323.19;5032619;28;20144;-78
2022/06/14 02:11:34;;;;;;;29.48;20.48;;;;;;;18.64;72.51;99331.00;5032112;28;20061;-78
2022/06/14 02:14:43;;;;;;;29.95;21.98;;;;;;;18.76;72.30;99329.69;5032434;28;20058;-77
2022/06/14 02:17:19;;;;;;;31.17;21.15;;;;;;;18.77;72.00;99326.97;5030061;28;20060;-77
2022/06/14 02:20:01;;;;;;;31.73;21.73;;;;;;;18.82;71.96;99337.41;5030195;28;20049;-78
2022/06/14 02:22:42;;;;;;;29.95;21.70;;;;;;;18.87;71.85;99334.59;5031319;28;20057;-78
2022/06/14 02:25:21;;;;;;;27.35;20.38;;;;;;;18.95;71.41;99321.91;5032389;28;20057;-78
2022/06/14 02:27:57;;;;;;;30.90;20.92;;;;;;;19.23;70.34;99330.47;5032430;28;20088;-78
2022/06/14 02:30:37;;;;;;;30.08;20.88;;;;;;;19.37;69.76;99340.50;5032161;28;20068;-78
2022/06/14 02:33:19;;;;;;;28.70;19.67;;;;;;;19.60;69.27;99330.75;5032285;28;20140;-77
2022/06/14 02:36:05;;;;;;;25.23;17.38;;;;;;;19.95;68.37;99337.22;5031304;28;20055;-77
2022/06/14 02:38:42;;;;;;;25.45;18.83;;;;;;;20.16;67.39;99343.38;5032043;28;20057;-76
2022/06/14 02:41:15;;;;;;;26.05;19.00;;;;;;;20.23;66.85;99334.22;5032744;28;20060;-78
2022/06/14 02:43:49;;;;;;;20.98;17.15;;;;;;;20.46;66.25;99327.03;5032408;28;20108;-79
2022/06/14 02:46:31;;;;;;;23.17;17.60;;;;;;;20.72;65.15;99325.84;5031931;28;20045;-78
2022/06/14 02:49:10;;;;;;;24.85;19.20;;;;;;;20.77;64.91;99322.97;5032149;28;20076;-77
2022/06/14 02:52:04;;;;;;;23.48;18.55;;;;;;;20.88;64.93;99330.41;5032392;28;20087;-78
2022/06/14 02:54:44;;;;;;;23.85;19.00;;;;;;;20.95;64.55;99324.75;5031307;28;20132;-78
2022/06/14 02:57:26;;;;;;;24.80;19.92;;;;;;;21.19;63.83;99317.41;5035847;28;20068;-77
2022/06/14 03:00:01;;;;;;;23.75;18.77;;;;;;;21.55;62.59;99319.16;5035988;28;20053;-78
2022/06/14 03:02:36;;;;;;;25.10;19.45;;;;;;;22.36;60.41;99315.94;5036033;28;20504;-78
2022/06/14 03:05:03;;;;;;;22.65;17.70;;;;;;;22.75;58.94;99325.34;5036081;28;20425;-78
2022/06/14 03:08:02;;;;;;;22.40;18.02;;;;;;;23.22;57.88;99324.50;5035506;28;20511;-78
2022/06/14 03:10:58;;;;;;;25.02;17.52;;;;;;;24.05;55.61;99317.00;5035105;28;20049;-78
2022/06/14 03:13:37;;;;;;;23.60;18.63;;;;;;;24.47;53.95;99324.13;5034003;28;20144;-78
2022/06/14 03:16:19;;;;;;;21.20;16.70;;;;;;;25.64;51.21;99315.75;5033629;28;20469;-78
2022/06/14 03:19:18;;;;;;;21.17;17.63;;;;;;;26.76;48.73;99319.56;5026370;28;20099;-78
2022/06/14 03:22:05;;;;;;;19.98;17.13;;;;;;;28.72;44.48;99312.81;5033770;28;20061;-79
2022/06/14 03:24:45;;;;;;;20.00;16.25;;;;;;;29.32;42.43;99326.72;5035075;28;20053;-78
2022/06/14 03:27:16;;;;;;;20.65;16.52;;;;;;;29.90;40.68;99324.56;5035529;28;20072;-78
2022/06/14 03:29:49;;;;;;;20.02;16.67;;;;;;;29.46;41.67;99318.38;5035445;28;20060;-78
2022/06/14 03:32:21;;;;;;;19.98;17.42;;;;;;;28.75;42.87;99325.97;5035333;28;20053;-79
2022/06/14 03:34:53;;;;;;;20.13;16.80;;;;;;;28.70;42.55;99323.66;5035341;28;20058;-78
2022/06/14 03:37:21;;;;;;;18.10;15.70;;;;;;;29.60;41.09;99310.00;5035034;28;20054;-79
2022/06/14 03:39:54;;;;;;;19.00;16.13;;;;;;;30.66;38.93;99313.50;5035266;28;20103;-78
2022/06/14 03:42:22;;;;;;;19.17;15.90;;;;;;;31.58;36.71;99313.28;5033779;28;20080;-79
2022/06/14 03:44:50;;;;;;;18.60;16.10;;;;;;;32.31;35.53;99318.16;5033913;28;20148;-80
2022/06/14 03:47:17;;;;;;;17.13;15.32;;;;;;;33.73;33.42;99304.22;5035103;28;20096;-80
2022/06/14 03:49:52;;;;;;;17.83;15.70;;;;;;;35.27;30.21;99295.19;5035230;28;20056;-79
2022/06/14 03:52:41;;;;;;;17.77;15.98;;;;;;;36.24;29.70;99318.97;5035032;28;20087;-79
2022/06/14 03:55:33;;;;;;;17.75;15.95;;;;;;;36.57;29.28;99308.00;5035259;28;20046;-80
2022/06/14 03:58:13;;;;;;;17.35;15.65;;;;;;;37.23;27.55;99314.00;5035401;28;20057;-82
2022/06/14 04:00:56;;;;;;;17.52;15.10;;;;;;;38.74;25.85;99310.41;5023698;28;20515;-83
2022/06/14 04:03:43;;;;;;;17.83;16.02;;;;;;;39.63;24.30;99310.19;5023600;28;20560;-83
2022/06/14 04:06:22;;;;;;;17.30;15.27;;;;;;;40.30;23.20;99308.84;5022769;28;20053;-83
2022/06/14 04:08:58;;;;;;;17.90;15.88;;;;;;;40.30;23.37;99302.53;5015173;28;20058;-80
2022/06/14 04:11:58;;;;;;;16.20;14.65;;;;;;;41.47;22.48;99314.38;5014638;28;20069;-79
2022/06/14 04:14:44;;;;;;;17.45;15.70;;;;;;;42.07;21.52;99301.56;5014546;28;20598;-78
2022/06/14 04:17:17;;;;;;;18.27;16.58;;;;;;;41.49;21.56;99295.84;5014832;28;20061;-79
2022/06/14 04:20:01;;;;;;;17.83;16.02;;;;;;;39.21;23.99;99300.91;5014191;28;20430;-78
2022/06/14 04:22:41;;;;;;;20.25;16.30;;;;;;;36.77;27.54;99300.31;5013379;28;20057;-81
2022/06/14 04:25:12;;;;;;;18.90;16.13;;;;;;;34.85;29.94;99296.09;4997236;28;20591;-79
2022/06/14 04:27:48;;;;;;;18.95;16.52;;;;;;;33.91;31.43;99293.34;5014105;28;20068;-79
2022/06/14 04:30:57;;;;;;;17.60;15.82;;;;;;;32.87;33.43;99296.56;5014841;28;20045;-80
2022/06/14 04:33:52;;;;;;;21.77;17.70;;;;;;;31.77;35.27;99298.91;5013051;28;20064;-81
2022/06/14 04:36:46;;;;;;;20.00;16.33;;;;;;;31.15;36.60;99301.00;5017212;28;20060;-79
2022/06/14 04:39:22;;;;;;;18.70;16.58;;;;;;;30.71;37.57;99308.53;5021753;28;20053;-81
2022/06/14 04:42:23;;;;;;;19.23;15.65;;;;;;;29.75;39.25;99298.94;5034697;28;20053;-81
2022/06/14 04:45:41;;;;;;;18.58;16.58;;;;;;;28.85;41.20;99304.59;5036289;28;20057;-82
2022/06/14 04:48:24;;;;;;;18.47;15.67;;;;;;;28.67;41.84;99309.63;5036620;28;20518;-82
2022/06/14 04:50:57;;;;;;;17.83;14.70;;;;;;;28.51;42.41;99296.56;5035057;28;20084;-82
2022/06/14 04:53:35;;;;;;;18.60;14.27;;;;;;;28.02;43.84;99317.38;5036543;28;20057;-82
2022/06/14 04:56:32;;;;;;;17.02;14.73;;;;;;;28.08;43.49;99311.53;5057766;28;20033;-84
2022/06/14 04:59:15;;;;;;;15.48;13.98;;;;;;;28.07;43.99;99304.47;5057122;28;20040;-83
2022/06/14 05:02:10;;;;;;;16.10;13.45;;;;;;;28.31;43.53;99304.34;5056771;28;20037;-82
2022/06/14 05:04:45;;;;;;;15.50;11.98;;;;;;;27.97;43.81;99316.88;5041506;28;20123;-85
2022/06/14 05:07:27;;;;;;;14.23;12.77;;;;;;;27.92;44.13;99302.94;5045876;28;20053;-85
2022/06/14 05:10:02;;;;;;;14.10;11.45;;;;;;;27.53;44.92;99291.59;5020976;28;20053;-88
2022/06/14 05:13:11;;;;;;;16.20;11.95;;;;;;;27.13;45.98;99305.28;5034218;28;20065;-83
2022/06/14 05:15:47;;;;;;;13.57;11.75;;;;;;;27.44;45.49;99303.88;5033283;28;20049;-82
2022/06/14 05:18:24;;;;;;;19.35;15.15;;;;;;;27.76;45.45;99297.88;5031763;28;20052;-85
2022/06/14 05:21:01;;;;;;;13.77;12.23;;;;;;;27.87;44.68;99281.00;5032413;28;20068;-84
2022/06/14 05:23:40;;;;;;;14.85;10.25;;;;;;;27.76;45.12;99271.06;5031660;28;20081;-85
2022/06/14 05:26:29;;;;;;;14.15;10.95;;;;;;;27.91;45.43;99291.38;5031974;28;20053;-83
2022/06/14 05:29:22;;;;;;;11.23;10.00;;;;;;;27.72;45.62;99291.88;5032850;28;20099;-84
2022/06/14 05:32:16;;;;;;;16.45;11.52;;;;;;;27.64;45.54;99294.34;5032638;28;20618;-84
2022/06/14 05:34:52;;;;;;;13.50;11.38;;;;;;;27.55;45.91;99289.66;5032861;28;20084;-85
2022/06/14 05:37:32;;;;;;;14.93;10.55;;;;;;;27.43;46.14;99283.41;5031604;28;20049;-84
2022/06/14 05:40:18;;;;;;;11.85;10.65;;;;;;;27.27;46.78;99289.06;5032904;28;20064;-84
2022/06/14 05:42:58;;;;;;;12.35;10.65;;;;;;;27.30;46.96;99288.00;5032688;28;20557;-84
2022/06/14 05:45:28;;;;;;;17.02;10.82;;;;;;;27.48;46.44;99285.72;5034200;28;20071;-84
2022/06/14 05:48:03;;;;;;;14.05;10.10;;;;;;;27.21;47.33;99272.53;5033089;28;20416;-84
2022/06/14 05:50:58;;;;;;;12.50;10.13;;;;;;;27.03;47.80;99277.47;5032579;28;20081;-82
2022/06/14 05:53:46;;;;;;;14.65;9.93;;;;;;;27.15;47.39;99282.75;5032399;28;20054;-83
2022/06/14 05:56:20;;;;;;;10.73;9.63;;;;;;;27.31;47.92;99287.84;5032541;28;20140;-82
2022/06/14 05:59:14;;;;;;;11.05;9.57;;;;;;;27.14;47.11;99264.09;5031401;28;20054;-84
2022/06/14 06:02:12;;;;;;;11.70;9.35;;;;;;;27.20;47.24;99285.09;5032765;28;20050;-84
2022/06/14 06:04:46;;;;;;;11.05;8.98;;;;;;;27.18;47.07;99282.53;5032856;28;20054;-84
2022/06/14 06:07:25;;;;;;;12.38;8.75;;;;;;;26.94;47.26;99273.63;5032883;28;20057;-84
2022/06/14 06:09:59;;;;;;;9.18;8.13;;;;;;;27.13;46.68;99275.81;5032459;28;20060;-84
2022/06/14 06:12:38;;;;;;;12.98;7.40;;;;;;;27.11;45.88;99261.66;5034359;28;20085;-83
2022/06/14 06:15:32;;;;;;;9.60;7.13;;;;;;;27.20;45.63;99282.41;5033122;28;20057;-83
2022/06/14 06:18:06;;;;;;;10.07;7.20;;;;;;;27.06;45.38;99283.47;5032621;28;20053;-85
2022/06/14 06:20:45;;;;;;;8.73;6.68;;;;;;;27.03;45.33;99269.41;5038749;28;20116;-83
2022/06/14 06:23:39;;;;;;;7.43;6.65;;;;;;;26.92;45.49;99267.53;5039063;28;20075;-84
2022/06/14 06:26:10;;;;;;;8.55;6.32;;;;;;;26.74;45.45;99241.13;5032834;28;20099;-84
2022/06/14 06:28:44;;;;;;;11.48;6.15;;;;;;;26.88;45.55;99263.38;5032755;28;20049;-84
2022/06/14 06:31:20;;;;;;;9.63;6.38;;;;;;;26.83;45.03;99247.63;5034141;28;20049;-84
2022/06/14 06:33:51;;;;;;;7.57;6.80;;;;;;;26.79;45.15;99242.63;5036108;28;20053;-84
2022/06/14 06:36:52;;;;;;;10.27;6.68;;;;;;;26.88;45.60;99269.56;5036253;28;20092;-84
2022/06/14 06:39:46;;;;;;;8.23;6.80;;;;;;;26.91;46.09;99272.03;5035017;28;20057;-84
2022/06/14 06:42:25;;;;;;;8.50;7.47;;;;;;;26.83;46.29;99271.75;5035766;28;20050;-84
2022/06/14 06:45:07;;;;;;;7.38;6.10;;;;;;;26.84;46.84;99262.72;5034851;28;20466;-84
2022/06/14 06:47:40;;;;;;;8.73;6.60;;;;;;;27.04;46.03;99266.63;5034853;28;20084;-84
2022/06/14 06:50:10;;;;;;;11.25;6.20;;;;;;;27.05;46.29;99267.47;5036218;28;20509;-84
2022/06/14 06:52:40;;;;;;;10.43;6.63;;;;;;;26.94;46.60;99270.97;5035622;28;20054;-83
2022/06/14 06:55:20;;;;;;;7.85;7.05;;;;;;;26.98;47.06;99274.28;5034837;28;20045;-84
2022/06/14 06:57:51;;;;;;;8.98;6.80;;;;;;;27.28;46.56;99263.13;5034634;28;20053;-84
2022/06/14 07:00:20;;;;;;;7.50;6.80;;;;;;;27.37;46.22;99259.72;5035768;28;20591;-84
2022/06/14 07:02:51;;;;;;;8.73;6.40;;;;;;;27.41;46.00;99253.16;5034337;28;20049;-85
2022/06/14 07:05:19;;;;;;;11.15;7.20;;;;;;;27.46;46.25;99250.13;5034615;28;20095;-86
2022/06/14 07:07:52;;;;;;;8.02;6.93;;;;;;;27.57;46.37;99266.25;5035470;28;20111;-84
2022/06/14 07:10:45;;;;;;;8.60;7.70;;;;;;;27.24;47.08;99258.97;5035911;28;20115;-84
2022/06/14 07:13:34;;;;;;;11.43;7.05;;;;;;;27.46;46.72;99256.34;5034603;28;20087;-84
2022/06/14 07:16:17;;;;;;;;;;;;;;;27.16;46.81;99262.16;5034870;28;20468;-83
2022/06/14 07:19:23;;;;;;;7.97;6.90;;;;;;;26.73;47.65;99258.16;5035524;28;19972;-83
2022/06/14 07:22:01;;;;;;;8.77;7.00;;;;;;;26.77;47.82;99262.31;5034345;28;20053;-83
2022/06/14 07:25:08;;;;;;;7.45;6.75;;;;;;;27.55;46.57;99254.78;5035990;28;20560;-82
2022/06/14 07:27:59;;;;;;;8.63;6.93;;;;;;;27.78;45.70;99259.22;5037645;28;20051;-85
2022/06/14 07:30:31;;;;;;;10.63;7.07;;;;;;;28.16;44.69;99257.25;5035304;28;20057;-84
2022/06/14 07:33:01;;;;;;;7.10;6.45;;;;;;;28.47;43.61;99252.09;5034248;28;20057;-84
2022/06/14 07:36:05;;;;;;;9.85;5.90;;;;;;;28.45;43.41;99260.28;5035578;28;20053;-84
2022/06/14 07:39:19;;;;;;;9.02;5.68;;;;;;;28.23;43.82;99262.97;5034023;28;20472;-83
2022/06/14 07:42:17;;;;;;;7.18;6.40;;;;;;;28.48;43.83;99260.06;5032646;28;20049;-85
2022/06/14 07:45:00;;;;;;;7.60;6.38;;;;;;;28.87;42.61;99249.75;4991690;28;20602;-83
2022/06/14 07:47:33;;;;;;;6.68;6.07;;;;;;;28.99;42.35;99256.78;5030938;28;20049;-84
2022/06/14 07:50:13;;;;;;;7.25;5.82;;;;;;;29.13;41.58;99261.06;5034913;28;20513;-84
2022/06/14 07:52:53;;;;;;;7.63;5.85;;;;;;;29.15;41.82;99242.97;5033747;28;20057;-83
2022/06/14 07:55:23;;;;;;;;;;;;;;;29.09;42.40;99245.28;5036006;28;20053;-85
2022/06/14 07:57:57;;;;;;;6.50;5.50;;;;;;;29.25;41.67;99244.88;5033964;28;19929;-85
2022/06/14 08:03:24;;;;;;;7.18;5.45;;;;;;;29.14;40.92;99253.81;5034203;28;20084;-84
2022/06/14 08:05:53;;;;;;;7.20;5.18;;;;;;;29.53;39.66;99224.53;5034168;28;20045;-83
2022/06/14 08:08:33;;;;;;;5.88;5.25;;;;;;;29.91;38.67;99217.72;5035209;28;20564;-83
2022/06/14 08:11:07;;;;;;;6.25;4.50;;;;;;;29.78;36.86;99228.72;5034305;28;20489;-84
2022/06/14 08:13:51;;;;;;;4.88;4.13;;;;;;;29.59;37.51;99238.31;5034471;28;20128;-83
2022/06/14 08:16:21;;;;;;;9.25;5.22;;;;;;;29.58;38.55;99225.88;5034520;28;20060;-83
2022/06/14 08:19:11;;;;;;;7.07;4.35;;;;;;;29.64;38.52;99237.06;5034302;28;20063;-83
2022/06/14 08:21:51;;;;;;;7.43;4.93;;;;;;;29.36;39.05;99225.97;5034175;28;20053;-84
2022/06/14 08:24:26;;;;;;;5.93;5.43;;;;;;;29.32;38.98;99224.53;5034302;28;20084;-85
2022/06/14 08:27:05;;;;;;;7.20;4.60;;;;;;;28.99;39.02;99226.34;5016833;28;20052;-85
2022/06/14 08:29:53;;;;;;;6.20;4.75;;;;;;;28.65;39.77;99215.69;5034420;28;20488;-85
2022/06/14 08:32:43;;;;;;;5.93;5.10;;;;;;;28.35;41.07;99225.25;5033273;28;20107;-83
2022/06/14 08:35:10;;;;;;;5.45;4.82;;;;;;;28.80;39.42;99216.28;5032845;28;20053;-83
2022/06/14 08:37:39;;;;;;;6.22;4.72;;;;;;;28.79;38.82;99222.63;5032228;28;20158;-83
2022/06/14 08:40:31;;;;;;;5.53;4.97;;;;;;;28.78;39.09;99219.09;5034908;28;20505;-80
2022/06/14 08:43:04;;;;;;;6.55;5.10;;;;;;;28.16;39.14;99206.25;5034237;28;20065;-81
2022/06/14 08:45:53;;;;;;;5.85;4.60;;;;;;;27.85;40.08;99197.03;5039358;28;20057;-80
2022/06/14 08:48:32;;;;;;;5.63;4.95;;;;;;;28.51;39.50;99211.47;5057050;28;20029;-81
2022/06/14 08:51:29;;;;;;;5.53;5.03;;;;;;;28.85;38.68;99207.84;5056534;28;20053;-80
2022/06/14 08:54:22;;;;;;;5.45;4.35;;;;;;;28.88;39.04;99216.50;5047770;28;20062;-81
2022/06/14 08:57:11;;;;;;;6.82;5.05;;;;;;;29.10;38.98;99207.50;5036088;28;20080;-81
2022/06/14 08:59:43;;;;;;;5.15;4.65;;;;;;;29.31;38.00;99210.22;5035121;28;20060;-81
2022/06/14 09:02:42;;;;;;;5.07;4.60;;;;;;;29.14;37.72;99208.13;5033802;28;20476;-80
2022/06/14 09:05:47;;;;;;;4.95;4.45;;;;;;;29.00;38.03;99195.81;5036925;28;20493;-83
2022/06/14 09:08:37;;;;;;;;;;;;;;;28.92;38.89;99195.59;5034215;28;20045;-82
2022/06/14 09:11:39;;;;;;;10.75;4.47;;;;;;;29.22;38.15;99204.81;5033110;28;19931;-81
2022/06/14 09:14:35;;;;;;;5.47;4.05;;;;;;;29.34;36.13;99195.66;5033377;28;20100;-80
2022/06/14 09:17:23;;;;;;;8.10;4.28;;;;;;;29.46;36.81;99193.78;5033661;28;20053;-80
2022/06/14 09:20:17;;;;;;;8.15;5.07;;;;;;;29.22;37.37;99180.59;5032517;28;20081;-81
2022/06/14 09:22:50;;;;;;;4.93;4.50;;;;;;;29.09;37.92;99184.31;5025076;28;20095;-81
2022/06/14 09:25:43;;;;;;;7.25;4.47;;;;;;;28.86;38.04;99185.34;5021857;28;20046;-80
2022/06/14 09:28:23;;;;;;;7.45;4.57;;;;;;;29.10;36.71;99183.31;5018787;28;20513;-79
2022/06/14 09:31:15;;;;;;;5.93;4.10;;;;;;;29.49;36.11;99172.84;5023569;28;20060;-81
2022/06/14 09:33:48;;;;;;;4.60;3.72;;;;;;;29.54;35.15;99178.69;5032907;28;20053;-81
2022/06/14 09:36:27;;;;;;;5.40;4.30;;;;;;;29.25;35.70;99174.94;5015908;28;20495;-79
2022/06/14 09:39:16;;;;;;;6.43;4.28;;;;;;;28.95;36.07;99165.75;5011990;28;20057;-79
2022/06/14 09:42:05;;;;;;;7.43;4.10;;;;;;;28.78;36.31;99175.22;5011370;28;20502;-81
2022/06/14 09:44:45;;;;;;;8.85;4.45;;;;;;;28.97;36.75;99167.38;5012967;28;20119;-81
2022/06/14 09:47:16;;;;;;;;;;;;;;;28.62;37.61;99174.81;5012364;28;20062;-80
2022/06/14 09:50:07;;;;;;;5.05;4.15;;;;;;;28.54;37.56;99162.00;5029847;28;20391;-79
2022/06/14 09:52:50;;;;;;;5.10;3.88;;;;;;;28.51;37.24;99156.91;5033273;28;20052;-84
2022/06/14 09:55:36;;;;;;;6.05;3.92;;;;;;;28.85;36.86;99154.94;5031867;28;20061;-79
2022/06/14 09:58:28;;;;;;;4.00;3.70;;;;;;;28.87;36.72;99149.47;5032580;28;20064;-83
2022/06/14 10:01:10;;;;;;;3.90;3.60;;;;;;;28.81;35.93;99147.28;5030667;28;20466;-82
2022/06/14 10:04:02;;;;;;;6.13;3.95;;;;;;;28.72;35.35;99141.69;5031485;28;20064;-81
2022/06/14 10:06:48;;;;;;;4.35;3.65;;;;;;;28.71;34.86;99150.72;5034922;28;20049;-81
2022/06/14 10:09:47;;;;;;;5.03;3.65;;;;;;;28.61;35.90;99141.72;5036629;28;20156;-82
2022/06/14 10:12:36;;;;;;;3.63;3.33;;;;;;;28.42;35.41;99147.72;5035513;28;20145;-81
2022/06/14 10:15:15;;;;;;;4.95;3.75;;;;;;;28.44;35.91;99144.91;5035396;28;20139;-81
2022/06/14 10:18:06;;;;;;;6.50;3.92;;;;;;;28.26;36.34;99137.38;5036800;28;20076;-81
2022/06/14 10:21:12;;;;;;;3.72;3.40;;;;;;;28.23;35.58;99126.91;5035553;28;20057;-81
2022/06/14 10:23:57;;;;;;;4.75;3.50;;;;;;;28.42;35.69;99128.09;5035402;28;20049;-80
2022/06/14 10:29:48;;;;;;;4.28;3.88;;;;;;;28.03;36.50;99111.53;5035036;28;20076;-80
2022/06/14 10:32:21;;;;;;;7.30;3.60;;;;;;;28.09;36.18;99111.03;5036399;28;20511;-80
2022/06/14 10:35:04;;;;;;;4.30;3.90;;;;;;;28.04;36.20;99118.63;5036046;28;20057;-81
2022/06/14 10:37:35;;;;;;;3.83;3.40;;;;;;;27.96;35.40;99109.38;5035951;28;20505;-80
2022/06/14 10:40:14;;;;;;;4.72;3.20;;;;;;;27.93;35.71;99112.28;5035862;28;20053;-80
2022/06/14 10:42:51;;;;;;;4.10;3.75;;;;;;;27.91;35.09;99108.03;5034492;28;20532;-79
2022/06/14 10:45:23;;;;;;;4.65;3.40;;;;;;;27.83;35.78;99110.44;5034983;28;20505;-80
2022/06/14 10:48:24;;;;;;;3.78;3.50;;;;;;;27.80;36.71;99102.66;5036232;28;20127;-80
2022/06/14 10:51:03;;;;;;;6.55;3.60;;;;;;;27.92;36.82;99099.88;5035902;28;20065;-81
2022/06/14 10:53:42;;;;;;;3.70;3.40;;;;;;;27.97;36.37;99099.50;5034807;28;20053;-81
2022/06/14 10:56:12;;;;;;;4.60;3.20;;;;;;;27.96;34.72;99087.91;5035894;28;20424;-83
2022/06/14 10:59:14;;;;;;;5.45;3.42;;;;;;;27.48;35.87;99076.56;5036162;28;20056;-80
2022/06/14 11:01:58;;;;;;;4.07;3.30;;;;;;;27.44;36.45;99091.19;5034622;28;20115;-81
2022/06/14 11:04:43;;;;;;;3.80;3.42;;;;;;;27.54;36.38;99097.53;5033185;28;20056;-80
2022/06/14 11:07:48;;;;;;;8.35;3.25;;;;;;;27.68;36.10;99086.53;5034854;28;20049;-79
2022/06/14 11:10:30;;;;;;;7.40;3.55;;;;;;;27.93;36.47;99079.25;5035582;28;20588;-79
2022/06/14 11:13:06;;;;;;;5.82;3.58;;;;;;;27.99;35.91;99089.47;5035646;28;20152;-81
2022/06/14 11:15:43;;;;;;;3.78;3.40;;;;;;;27.84;35.51;99085.34;5035099;28;20053;-82
2022/06/14 11:18:48;;;;;;;3.70;3.40;;;;;;;27.77;36.39;99072.41;5033814;28;20406;-80
2022/06/14 11:21:35;;;;;;;4.32;3.33;;;;;;;27.86;36.58;99067.31;5035399;28;20049;-79
2022/06/14 11:24:20;;;;;;;4.68;3.75;;;;;;;27.89;36.54;99062.53;5033358;28;20053;-82
2022/06/14 11:27:03;;;;;;;5.43;3.13;;;;;;;27.88;36.62;99062.69;5034925;28;20061;-80
2022/06/14 11:29:52;;;;;;;4.05;3.42;;;;;;;27.89;35.64;99065.22;5035275;28;20091;-79
2022/06/14 11:32:46;;;;;;;4.57;3.53;;;;;;;27.79;35.78;99061.53;5034995;28;20053;-81
2022/06/14 11:35:38;;;;;;;5.13;3.33;;;;;;;27.65;35.97;99049.25;5033686;28;20059;-79
2022/06/14 11:38:28;;;;;;;3.33;3.03;;;;;;;27.74;35.40;99047.63;5034900;28;20132;-80
2022/06/14 11:41:08;;;;;;;5.43;3.30;;;;;;;27.79;34.87;99050.78;5035013;28;20497;-81
2022/06/14 11:44:08;;;;;;;6.32;3.13;;;;;;;27.72;35.19;99039.72;5034629;28;20413;-80
2022/06/14 11:46:58;;;;;;;3.58;2.83;;;;;;;27.53;35.04;99045.72;5033872;28;20103;-80
2022/06/14 11:49:55;;;;;;;3.33;2.38;;;;;;;27.49;33.91;99035.34;5049951;28;20144;-80
2022/06/14 11:53:01;;;;;;;4.35;2.90;;;;;;;27.45;34.58;99032.06;5025643;28;20058;-80
2022/06/14 11:55:36;;;;;;;5.32;2.72;;;;;;;27.48;35.00;99036.31;5011162;28;20143;-81
2022/06/14 11:58:27;;;;;;;2.60;2.40;;;;;;;27.49;35.07;99033.53;5034600;28;20152;-80
2022/06/14 12:01:12;;;;;;;2.80;2.55;;;;;;;27.53;34.23;99035.00;5034803;28;20144;-80
2022/06/14 12:04:03;;;;;;;3.90;2.72;;;;;;;27.55;34.78;99029.50;5034196;28;20408;-81
2022/06/14 12:06:37;;;;;;;5.53;2.80;;;;;;;27.47;34.99;99013.16;5034490;28;20524;-80
2022/06/14 12:09:34;;;;;;;2.83;2.30;;;;;;;27.56;34.18;99037.41;5032355;28;20064;-80
2022/06/14 12:12:10;;;;;;;4.78;2.80;;;;;;;27.73;34.13;99017.28;5027355;28;20070;-81
2022/06/14 12:15:00;;;;;;;4.07;2.80;;;;;;;27.75;34.25;99011.81;5021093;28;21463;-81
2022/06/14 12:17:58;;;;;;;2.85;2.67;;;;;;;27.68;34.46;99010.56;5019737;28;20058;-81
2022/06/14 12:20:26;;;;;;;3.17;2.28;;;;;;;27.55;33.28;99002.66;5013719;28;20135;-81
2022/06/14 12:23:19;;;;;;;4.22;2.45;;;;;;;27.46;34.52;99000.72;5013060;28;20049;-80
2022/06/14 12:29:07;;;;;;;5.90;2.50;;;;;;;27.47;35.36;98983.66;5013891;28;20057;-81
2022/06/14 12:31:53;;;;;;;5.65;2.70;;;;;;;27.71;35.56;98987.03;5014232;28;20060;-82
2022/06/14 12:34:33;;;;;;;5.32;2.72;;;;;;;27.62;35.48;98971.72;5014846;28;20046;-85
2022/06/14 12:37:06;;;;;;;5.88;3.10;;;;;;;27.79;36.03;98991.78;5013115;28;20439;-81
2022/06/14 12:39:37;;;;;;;5.60;2.72;;;;;;;27.74;36.55;98988.63;5015241;28;20081;-83
2022/06/14 12:42:19;;;;;;;12.23;3.10;;;;;;;27.77;35.88;98981.19;5026299;28;20054;-80
2022/06/14 12:44:58;;;;;;;;;;;;;;;27.53;36.18;98986.72;5038186;28;20118;-80
2022/06/14 12:47:55;;;;;;;3.40;2.67;;;;;;;27.73;36.05;98985.09;5035659;28;19955;-82